Time;durP1;ratioP1;P1;durP2;ratioP2;P2;SDS_P1;SDS_P2;PMS_P1;PMS_P2;Temp;Humidity;BMP_temperature;BMP_pressure;BME280_temperature;BME280_humidity;BME280_pressure;Samples;Min_cycle;Max_cycle;Signal;HPM_P1;HPM_P2
2022/07/04 00:00:23;;;;;;;3.17;1.80;;;;;;;14.08;72.23;101842.16;4967319;28;20033;-80
2022/07/04 00:02:49;;;;;;;3.15;1.75;;;;;;;14.03;72.70;101842.38;4968404;28;20035;-80
2022/07/04 00:05:17;;;;;;;3.20;1.70;;;;;;;13.87;73.15;101834.25;4967931;28;20035;-80
2022/07/04 00:07:45;;;;;;;3.92;1.80;;;;;;;13.92;73.28;101842.06;4966286;28;20388;-80
2022/07/04 00:10:13;;;;;;;3.88;2.20;;;;;;;13.95;73.21;101841.91;4968711;28;20424;-80
2022/07/04 00:12:39;;;;;;;3.45;2.10;;;;;;;13.88;73.32;101836.00;4966518;28;20031;-80
2022/07/04 00:15:06;;;;;;;5.38;2.17;;;;;;;13.92;73.49;101836.72;4956663;28;20102;-80
2022/07/04 00:17:31;;;;;;;2.83;1.95;;;;;;;13.93;73.04;101825.94;4966118;28;20056;-81
2022/07/04 00:19:57;;;;;;;3.15;2.03;;;;;;;13.91;72.85;101825.13;4967904;28;20031;-80
2022/07/04 00:22:22;;;;;;;5.47;2.20;;;;;;;13.92;73.37;101826.88;4967903;28;20026;-81
2022/07/04 00:24:48;;;;;;;2.92;2.10;;;;;;;13.87;73.15;101818.19;4967442;28;20048;-80
2022/07/04 00:27:13;;;;;;;7.05;3.30;;;;;;;13.90;73.38;101823.41;4966082;28;20035;-81
2022/07/04 00:29:38;;;;;;;6.60;2.50;;;;;;;13.86;73.53;101823.63;4966038;28;20345;-80
2022/07/04 00:32:04;;;;;;;2.95;2.13;;;;;;;13.78;73.74;101829.34;4968718;28;20054;-80
2022/07/04 00:34:30;;;;;;;3.78;2.15;;;;;;;13.79;73.40;101830.19;4967679;28;20472;-81
2022/07/04 00:36:55;;;;;;;3.20;1.92;;;;;;;13.72;73.52;101826.97;4962878;28;20038;-81
2022/07/04 00:39:20;;;;;;;3.75;2.17;;;;;;;13.73;74.07;101825.16;4966365;28;20031;-80
2022/07/04 00:41:46;;;;;;;7.05;2.30;;;;;;;13.73;74.09;101826.03;4967807;28;20035;-81
2022/07/04 00:44:13;;;;;;;2.30;2.00;;;;;;;13.69;73.81;101822.63;4967035;28;20039;-80
2022/07/04 00:46:39;;;;;;;3.65;2.55;;;;;;;13.66;73.75;101838.81;4964396;28;20027;-81
2022/07/04 00:49:06;;;;;;;3.92;2.17;;;;;;;13.64;74.04;101815.78;4966268;28;20038;-80
2022/07/04 00:51:32;;;;;;;4.88;2.50;;;;;;;13.64;74.12;101826.47;4968187;28;20039;-80
2022/07/04 00:53:58;;;;;;;4.32;2.22;;;;;;;13.65;73.50;101809.47;4968121;28;20491;-81
2022/07/04 00:56:25;;;;;;;4.47;2.30;;;;;;;13.68;74.06;101823.56;4959180;28;20023;-80
2022/07/04 00:58:50;;;;;;;7.70;2.35;;;;;;;13.62;73.68;101812.28;4965267;28;20026;-80
2022/07/04 01:01:16;;;;;;;4.13;2.30;;;;;;;13.59;74.38;101816.00;4968084;28;20019;-81
2022/07/04 01:03:42;;;;;;;5.65;2.60;;;;;;;13.60;74.37;101811.50;4967218;28;20109;-81
2022/07/04 01:06:08;;;;;;;5.93;2.42;;;;;;;13.59;74.46;101809.78;4966975;28;20169;-81
2022/07/04 01:08:37;;;;;;;4.50;2.28;;;;;;;13.55;74.91;101808.19;4965931;28;20121;-81
2022/07/04 01:11:02;;;;;;;4.97;2.42;;;;;;;13.52;74.89;101816.38;4969427;28;20065;-80
2022/07/04 01:13:30;;;;;;;2.88;2.20;;;;;;;13.48;75.27;101812.97;4967201;28;20027;-81
2022/07/04 01:15:55;;;;;;;2.72;2.08;;;;;;;13.41;75.91;101817.72;4966146;28;20026;-81
2022/07/04 01:18:21;;;;;;;3.28;2.40;;;;;;;13.41;75.54;101815.03;4964302;28;20480;-81
2022/07/04 01:20:46;;;;;;;5.30;2.58;;;;;;;13.38;75.68;101814.34;4968755;28;20039;-81
2022/07/04 01:23:11;;;;;;;5.25;3.63;;;;;;;13.37;75.82;101805.44;4969346;28;20034;-80
2022/07/04 01:25:37;;;;;;;6.80;2.88;;;;;;;13.34;75.58;101797.59;4966435;28;20731;-81
2022/07/04 01:28:03;;;;;;;4.07;2.83;;;;;;;13.29;75.86;101804.06;4966476;28;20035;-81
2022/07/04 01:30:29;;;;;;;5.68;2.70;;;;;;;13.16;76.35;101795.72;4964734;28;20027;-81
2022/07/04 01:32:55;;;;;;;5.10;2.97;;;;;;;13.15;76.83;101804.69;4967503;28;20097;-81
2022/07/04 01:35:21;;;;;;;6.43;3.85;;;;;;;13.08;77.08;101792.53;4967371;28;20023;-81
2022/07/04 01:37:47;;;;;;;6.65;3.80;;;;;;;13.02;77.05;101785.69;4966064;28;20076;-81
2022/07/04 01:40:12;;;;;;;5.75;3.50;;;;;;;13.07;76.99;101798.81;4968079;28;20496;-81
2022/07/04 01:42:39;;;;;;;6.03;3.33;;;;;;;13.08;77.12;101790.72;4968698;28;20534;-80
2022/07/04 01:45:05;;;;;;;7.78;3.92;;;;;;;13.07;76.66;101783.66;4966996;28;20049;-81
2022/07/04 01:47:30;;;;;;;7.28;3.80;;;;;;;13.00;76.73;101775.97;4983388;28;20096;-81
2022/07/04 01:49:56;;;;;;;7.30;3.83;;;;;;;12.94;77.32;101770.00;4964735;28;20151;-81
2022/07/04 01:52:21;;;;;;;5.72;3.85;;;;;;;12.91;76.85;101778.13;4967445;28;20027;-81
2022/07/04 01:54:46;;;;;;;4.97;3.58;;;;;;;12.85;77.29;101761.53;4966565;28;20146;-81
2022/07/04 01:57:12;;;;;;;5.47;3.83;;;;;;;12.92;76.88;101763.00;4967606;28;20134;-81
2022/07/04 02:02:23;;;;;;;5.53;3.28;;;;;;;12.91;77.30;101767.44;4963045;28;20053;-81
2022/07/04 02:04:48;;;;;;;4.28;3.25;;;;;;;12.92;77.21;101769.22;4966774;28;20026;-81
2022/07/04 02:07:13;;;;;;;6.95;3.70;;;;;;;12.85;77.03;101767.75;4981517;28;20031;-81
2022/07/04 02:09:38;;;;;;;5.75;3.25;;;;;;;12.87;77.45;101773.88;4979691;28;20042;-80
2022/07/04 02:14:48;;;;;;;6.13;3.20;;;;;;;12.82;77.57;101777.69;4967320;28;20119;-81
2022/07/04 02:17:14;;;;;;;7.20;3.42;;;;;;;12.80;77.83;101774.25;4967330;28;20035;-81
2022/07/04 02:19:39;;;;;;;5.95;3.53;;;;;;;12.77;77.84;101771.69;4965356;28;20388;-81
2022/07/04 02:22:05;;;;;;;5.07;3.33;;;;;;;12.79;77.95;101775.16;4967653;28;20027;-81
2022/07/04 02:24:30;;;;;;;3.92;3.17;;;;;;;12.73;77.92;101781.66;4967866;28;20031;-81
2022/07/04 02:26:55;;;;;;;6.80;3.88;;;;;;;12.70;77.68;101773.78;4965980;28;20422;-81
2022/07/04 02:29:21;;;;;;;3.60;3.13;;;;;;;12.67;77.79;101779.28;4966054;28;20399;-81
2022/07/04 02:31:46;;;;;;;5.28;3.17;;;;;;;12.63;78.28;101767.84;4966831;28;20298;-80
2022/07/04 02:34:12;;;;;;;5.45;2.95;;;;;;;12.59;78.56;101781.41;4972245;28;20109;-80
2022/07/04 02:36:37;;;;;;;4.78;2.95;;;;;;;12.53;78.36;101776.31;4971822;28;20053;-81
2022/07/04 02:39:07;;;;;;;4.13;2.72;;;;;;;12.49;78.56;101782.75;4974014;28;20060;-81
2022/07/04 02:41:33;;;;;;;4.55;2.75;;;;;;;12.52;78.57;101785.28;4972741;28;20042;-81
2022/07/04 02:43:58;;;;;;;3.33;2.65;;;;;;;12.50;78.34;101780.03;4974158;28;20030;-81
2022/07/04 02:46:24;;;;;;;4.78;2.95;;;;;;;12.49;78.80;101785.41;4972061;28;20609;-81
2022/07/04 02:48:49;;;;;;;4.72;2.90;;;;;;;12.43;78.56;101776.75;4971400;28;20030;-81
2022/07/04 02:51:15;;;;;;;4.43;2.78;;;;;;;12.39;78.62;101780.47;4972505;28;20065;-80
2022/07/04 02:53:40;;;;;;;4.55;2.95;;;;;;;12.42;78.41;101782.16;4971031;28;20031;-81
2022/07/04 02:56:06;;;;;;;4.13;2.75;;;;;;;12.40;78.54;101787.53;4972414;28;20793;-81
2022/07/04 02:58:32;;;;;;;3.40;2.90;;;;;;;12.37;78.78;101787.69;4968867;28;20114;-81
2022/07/04 03:00:57;;;;;;;4.55;3.15;;;;;;;12.37;78.80;101797.47;4972343;28;20038;-81
2022/07/04 03:03:22;;;;;;;4.50;3.00;;;;;;;12.32;79.04;101791.47;4973066;28;20512;-81
2022/07/04 03:05:48;;;;;;;6.20;2.85;;;;;;;12.33;78.96;101794.09;4987776;28;20068;-81
2022/07/04 03:08:13;;;;;;;3.95;3.05;;;;;;;12.27;79.42;101790.81;4978158;28;20037;-80
2022/07/04 03:10:38;;;;;;;4.90;3.17;;;;;;;12.17;79.68;101780.53;4982708;28;20109;-81
2022/07/04 03:13:04;;;;;;;3.70;2.80;;;;;;;12.22;79.24;101801.69;4975779;28;20062;-81
2022/07/04 03:15:29;;;;;;;3.30;2.80;;;;;;;12.23;79.09;101794.56;4973200;28;20027;-81
2022/07/04 03:17:54;;;;;;;3.90;3.10;;;;;;;12.20;78.89;101803.53;4971735;28;20457;-81
2022/07/04 03:20:19;;;;;;;5.15;3.42;;;;;;;12.17;79.22;101801.03;4973818;28;20027;-80
2022/07/04 03:22:45;;;;;;;4.45;3.25;;;;;;;12.17;79.25;101807.22;4970653;28;20504;-81
2022/07/04 03:25:10;;;;;;;4.57;3.75;;;;;;;12.16;79.46;101809.94;4979107;28;20037;-81
2022/07/04 03:27:36;;;;;;;4.75;3.47;;;;;;;12.13;79.33;101826.97;4969035;28;20049;-81
2022/07/04 03:30:01;;;;;;;8.60;4.63;;;;;;;12.11;78.73;101822.63;4970885;28;20507;-81
2022/07/04 03:32:26;;;;;;;7.30;5.05;;;;;;;12.10;79.06;101828.91;4963473;28;20030;-81
2022/07/04 03:34:52;;;;;;;9.40;5.90;;;;;;;12.07;79.19;101829.00;4961146;28;20175;-81
2022/07/04 03:37:17;;;;;;;8.20;6.40;;;;;;;12.10;78.84;101829.75;4961053;28;20623;-81
2022/07/04 03:39:42;;;;;;;6.88;5.85;;;;;;;12.09;78.63;101832.50;4962356;28;20039;-81
2022/07/04 03:42:08;;;;;;;10.18;5.93;;;;;;;12.07;78.74;101842.34;4959314;28;20221;-81
2022/07/04 03:44:33;;;;;;;7.97;5.72;;;;;;;12.10;78.41;101847.56;4963961;28;20056;-81
2022/07/04 03:46:59;;;;;;;8.77;5.88;;;;;;;12.06;78.31;101845.97;4958255;28;20764;-81
2022/07/04 03:49:24;;;;;;;7.95;5.35;;;;;;;12.04;78.70;101843.38;4957758;28;20038;-80
2022/07/04 03:51:49;;;;;;;7.75;5.55;;;;;;;12.08;78.47;101850.31;4960746;28;20054;-81
2022/07/04 03:54:15;;;;;;;8.95;6.13;;;;;;;12.02;78.43;101844.34;4961555;28;20031;-81
2022/07/04 03:56:40;;;;;;;7.72;5.30;;;;;;;12.05;78.39;101849.56;4960651;28;20037;-80
2022/07/04 03:59:05;;;;;;;7.82;5.20;;;;;;;12.04;78.66;101842.47;4963733;28;20027;-80
2022/07/04 04:01:31;;;;;;;6.32;4.85;;;;;;;12.08;78.76;101846.75;4963151;28;20527;-81
2022/07/04 04:06:40;;;;;;;5.78;4.50;;;;;;;12.07;78.91;101848.56;4968583;28;20093;-80
2022/07/04 04:09:05;;;;;;;6.90;4.90;;;;;;;12.09;78.95;101857.38;4968925;28;20548;-80
2022/07/04 04:11:31;;;;;;;6.90;5.00;;;;;;;12.11;78.75;101857.31;4968792;28;20058;-81
2022/07/04 04:13:56;;;;;;;9.85;5.28;;;;;;;12.11;78.72;101855.50;4982732;28;20046;-81
2022/07/04 04:16:21;;;;;;;6.93;5.80;;;;;;;12.13;78.69;101867.00;4969725;28;20452;-80
2022/07/04 04:18:47;;;;;;;7.65;5.90;;;;;;;12.13;78.62;101869.66;4966620;28;20033;-80
2022/07/04 04:21:12;;;;;;;7.57;5.60;;;;;;;12.12;78.47;101867.94;4969341;28;20419;-80
2022/07/04 04:23:37;;;;;;;6.03;5.00;;;;;;;12.10;78.48;101875.13;4968664;28;20042;-80
2022/07/04 04:26:03;;;;;;;5.85;4.75;;;;;;;12.10;78.73;101874.25;4984452;28;20034;-80
2022/07/04 04:28:28;;;;;;;6.70;4.60;;;;;;;12.11;79.04;101874.19;4968028;28;20054;-80
2022/07/04 04:30:53;;;;;;;6.90;5.30;;;;;;;12.11;78.82;101876.00;4969365;28;20038;-80
2022/07/04 04:33:18;;;;;;;7.30;4.70;;;;;;;12.09;79.24;101872.53;4968082;28;21887;-81
2022/07/04 04:35:44;;;;;;;5.20;4.53;;;;;;;12.12;78.92;101875.06;4969188;28;20122;-81
2022/07/04 04:38:09;;;;;;;5.60;5.00;;;;;;;12.13;79.25;101876.81;4967330;28;20058;-81
2022/07/04 04:40:34;;;;;;;6.05;5.20;;;;;;;12.17;79.15;101881.09;4969410;28;20027;-80
2022/07/04 04:43:00;;;;;;;6.68;4.95;;;;;;;12.18;79.03;101886.34;4970173;28;20049;-80
2022/07/04 04:45:25;;;;;;;6.65;5.13;;;;;;;12.20;78.98;101887.16;4970399;28;20093;-80
2022/07/04 04:47:53;;;;;;;8.32;5.72;;;;;;;12.21;79.59;101878.22;4983493;28;20023;-80
2022/07/04 04:50:18;;;;;;;7.22;6.13;;;;;;;12.21;79.31;101880.03;4969923;28;20051;-80
2022/07/04 04:52:43;;;;;;;10.45;6.53;;;;;;;12.28;79.22;101886.84;4968639;28;20475;-81
2022/07/04 04:55:09;;;;;;;6.80;5.65;;;;;;;12.36;78.49;101876.72;4968528;28;20299;-81
2022/07/04 04:57:34;;;;;;;7.90;5.80;;;;;;;12.46;79.20;101875.41;4967396;28;20078;-80
2022/07/04 05:00:00;;;;;;;7.68;6.20;;;;;;;12.50;78.69;101869.91;4969135;28;20052;-80
2022/07/04 05:02:26;;;;;;;8.82;6.10;;;;;;;12.57;78.56;101869.59;4968176;28;20021;-80
2022/07/04 05:04:52;;;;;;;10.05;6.13;;;;;;;12.64;78.41;101865.72;4969091;28;20030;-81
2022/07/04 05:07:17;;;;;;;9.18;6.60;;;;;;;12.68;78.63;101864.66;4966777;28;20027;-80
2022/07/04 05:09:42;;;;;;;13.32;6.97;;;;;;;12.77;78.44;101863.41;4973126;28;20027;-82
2022/07/04 05:12:08;;;;;;;8.73;6.40;;;;;;;12.90;78.38;101863.72;4977169;28;20476;-81
2022/07/04 05:14:33;;;;;;;7.57;5.53;;;;;;;12.95;77.67;101853.69;4974624;28;20106;-79
2022/07/04 05:16:58;;;;;;;8.88;5.07;;;;;;;13.04;77.95;101858.66;4971434;28;20023;-79
2022/07/04 05:19:23;;;;;;;10.93;6.35;;;;;;;13.11;77.98;101857.41;4972169;28;20050;-79
2022/07/04 05:21:49;;;;;;;9.50;6.10;;;;;;;13.18;77.94;101858.00;4972970;28;20460;-80
2022/07/04 05:24:14;;;;;;;8.15;5.72;;;;;;;13.23;77.71;101866.72;4971918;28;20089;-79
2022/07/04 05:26:40;;;;;;;8.20;6.15;;;;;;;13.35;77.68;101863.47;4970140;28;20066;-79
2022/07/04 05:29:05;;;;;;;8.15;5.70;;;;;;;13.40;76.96;101866.81;4968966;28;20033;-80
2022/07/04 05:31:30;;;;;;;7.20;5.45;;;;;;;13.52;77.30;101869.84;4968442;28;20014;-79
2022/07/04 05:33:57;;;;;;;7.65;5.13;;;;;;;13.57;77.32;101863.34;4967084;28;20110;-79
2022/07/04 05:36:24;;;;;;;8.55;5.30;;;;;;;13.69;77.26;101867.25;4966299;28;20050;-79
2022/07/04 05:38:49;;;;;;;6.25;5.05;;;;;;;13.74;76.46;101867.88;4966788;28;20128;-79
2022/07/04 05:41:15;;;;;;;14.18;6.07;;;;;;;13.81;77.03;101864.00;4966035;28;20043;-79
2022/07/04 05:43:40;;;;;;;11.52;6.00;;;;;;;13.89;77.02;101864.47;4963116;28;20023;-79
2022/07/04 05:46:06;;;;;;;12.75;6.10;;;;;;;13.99;77.66;101859.53;4965210;28;20041;-79
2022/07/04 05:48:31;;;;;;;9.00;6.00;;;;;;;14.07;76.53;101862.72;4966710;28;20337;-79
2022/07/04 05:50:56;;;;;;;10.15;5.50;;;;;;;14.13;76.50;101854.38;4967012;28;20050;-80
2022/07/04 05:53:21;;;;;;;11.43;5.95;;;;;;;14.25;76.56;101860.06;4969105;28;20396;-80
2022/07/04 05:55:47;;;;;;;7.18;4.85;;;;;;;14.37;76.04;101857.63;4966666;28;20388;-79
2022/07/04 05:58:13;;;;;;;8.68;4.80;;;;;;;14.51;75.82;101861.47;4968217;28;20038;-80
2022/07/04 06:00:39;;;;;;;7.85;4.32;;;;;;;14.65;75.12;101861.63;4966001;28;20409;-79
2022/07/04 06:03:05;;;;;;;8.07;4.28;;;;;;;14.79;75.45;101860.88;4969659;28;20357;-79
2022/07/04 06:05:31;;;;;;;7.25;4.30;;;;;;;15.00;74.69;101859.75;4966529;28;20336;-80
2022/07/04 06:07:56;;;;;;;7.82;4.38;;;;;;;15.25;74.12;101872.72;4965364;28;20038;-79
2022/07/04 06:10:22;;;;;;;8.88;4.10;;;;;;;15.48;73.94;101866.09;4966221;28;20408;-80
2022/07/04 06:12:47;;;;;;;5.40;3.13;;;;;;;15.75;71.86;101868.22;4964658;28;20034;-80
2022/07/04 06:15:12;;;;;;;6.93;3.92;;;;;;;15.99;71.26;101869.53;4964506;28;20105;-80
2022/07/04 06:17:37;;;;;;;8.30;3.97;;;;;;;16.15;70.45;101856.09;4965936;28;20496;-78
2022/07/04 06:20:03;;;;;;;8.77;3.85;;;;;;;16.31;69.85;101864.97;4969392;28;20027;-78
2022/07/04 06:22:39;;;;;;;5.68;3.45;;;;;;;16.45;69.30;101864.16;4966771;28;20035;-79
2022/07/04 06:25:05;;;;;;;9.13;3.60;;;;;;;16.55;69.08;101859.94;4964700;28;20113;-79
2022/07/04 06:27:30;;;;;;;7.10;3.30;;;;;;;16.69;68.14;101868.06;4964035;28;20146;-79
2022/07/04 06:29:56;;;;;;;12.68;3.47;;;;;;;16.85;68.10;101877.94;4966606;28;20564;-79
2022/07/04 06:32:21;;;;;;;6.55;3.45;;;;;;;17.00;67.63;101876.13;4966902;28;20046;-79
2022/07/04 06:37:34;;;;;;;7.78;3.38;;;;;;;17.49;67.42;101881.13;5003710;28;20256;-79
2022/07/04 06:39:59;;;;;;;7.65;3.15;;;;;;;17.69;65.72;101886.13;5005306;28;20132;-79
2022/07/04 06:42:25;;;;;;;4.97;3.22;;;;;;;17.81;64.66;101874.59;5004189;28;20046;-80
2022/07/04 06:44:50;;;;;;;7.80;2.97;;;;;;;17.95;64.08;101865.59;5010550;28;20063;-79
2022/07/04 06:47:15;;;;;;;7.03;3.00;;;;;;;18.08;63.74;101863.81;5005303;28;20045;-79
2022/07/04 06:49:40;;;;;;;7.88;3.70;;;;;;;18.32;63.18;101873.94;5011858;28;20097;-80
2022/07/04 06:52:06;;;;;;;7.32;3.10;;;;;;;18.38;62.83;101874.38;5022037;28;20141;-79
2022/07/04 06:54:31;;;;;;;6.25;2.95;;;;;;;18.54;62.54;101873.34;5000503;28;20042;-79
2022/07/04 06:56:56;;;;;;;5.72;2.80;;;;;;;18.59;61.31;101866.66;5005147;28;20558;-79
2022/07/04 06:59:21;;;;;;;5.07;2.95;;;;;;;18.61;61.04;101861.19;5004653;28;20081;-79
2022/07/04 07:01:47;;;;;;;4.47;2.30;;;;;;;18.75;61.76;101868.34;5003166;28;20038;-79
2022/07/04 07:04:12;;;;;;;5.68;2.72;;;;;;;18.90;60.16;101870.84;5010658;28;20087;-80
2022/07/04 07:06:37;;;;;;;3.85;2.70;;;;;;;19.01;60.15;101870.06;5001616;28;20034;-79
2022/07/04 07:09:03;;;;;;;6.50;2.75;;;;;;;19.20;59.89;101866.09;5005507;28;20042;-78
2022/07/04 07:11:28;;;;;;;7.55;2.63;;;;;;;19.28;58.74;101872.69;5004854;28;20037;-80
2022/07/04 07:13:53;;;;;;;9.48;2.75;;;;;;;19.52;60.17;101867.34;4993962;28;21546;-79
2022/07/04 07:16:19;;;;;;;5.47;2.22;;;;;;;19.65;57.16;101868.22;4958448;28;20035;-80
2022/07/04 07:18:44;;;;;;;5.35;2.60;;;;;;;19.52;58.07;101864.66;4971303;28;20117;-80
2022/07/04 07:21:10;;;;;;;4.03;2.20;;;;;;;19.46;57.33;101862.38;4963188;28;20027;-80
2022/07/04 07:23:41;;;;;;;6.07;2.40;;;;;;;19.34;58.15;101842.53;4966323;28;20076;-79
2022/07/04 07:26:08;;;;;;;6.93;2.38;;;;;;;19.44;57.13;101852.66;4966548;28;20512;-80
2022/07/04 07:28:34;;;;;;;4.03;1.85;;;;;;;19.67;55.45;101860.00;4969277;28;20042;-80
2022/07/04 07:31:00;;;;;;;3.50;1.80;;;;;;;20.00;56.61;101856.66;4967212;28;20023;-81
2022/07/04 07:33:26;;;;;;;10.52;2.40;;;;;;;20.07;54.33;101857.06;4969996;28;20035;-80
2022/07/04 07:35:51;;;;;;;4.60;1.70;;;;;;;20.15;54.11;101858.22;4968946;28;20026;-80
2022/07/04 07:38:16;;;;;;;6.13;1.60;;;;;;;20.42;52.52;101858.94;4970672;28;20142;-80
2022/07/04 07:40:41;;;;;;;4.30;1.20;;;;;;;20.74;50.10;101854.66;4985696;28;20027;-80
2022/07/04 07:43:07;;;;;;;4.07;1.15;;;;;;;21.02;49.29;101863.28;4969905;28;20046;-80
2022/07/04 07:45:33;;;;;;;2.05;1.02;;;;;;;21.28;48.41;101859.38;4969823;28;20063;-80
2022/07/04 07:47:58;;;;;;;2.90;1.42;;;;;;;21.82;48.72;101860.44;4977862;28;20062;-81
2022/07/04 07:50:23;;;;;;;5.22;1.65;;;;;;;22.37;46.36;101851.34;4965246;28;20491;-81
2022/07/04 07:52:48;;;;;;;4.40;1.60;;;;;;;22.97;45.29;101862.50;4964079;28;20038;-80
2022/07/04 07:55:14;;;;;;;5.05;1.48;;;;;;;23.38;44.72;101857.97;4966638;28;20484;-79
2022/07/04 07:57:39;;;;;;;4.53;1.40;;;;;;;23.85;44.86;101861.88;4970854;28;20484;-80
2022/07/04 08:00:05;;;;;;;4.65;1.20;;;;;;;24.27;42.44;101856.19;4969581;28;20078;-80
2022/07/04 08:05:14;;;;;;;4.60;1.40;;;;;;;25.09;41.42;101852.13;4970450;28;20093;-80
2022/07/04 08:07:40;;;;;;;4.55;1.35;;;;;;;25.41;39.71;101848.13;4968002;28;20034;-81
2022/07/04 08:10:06;;;;;;;4.30;1.30;;;;;;;25.79;39.86;101849.81;4970774;28;20384;-81
2022/07/04 08:12:32;;;;;;;2.90;1.10;;;;;;;26.22;38.93;101834.59;4967775;28;20034;-80
2022/07/04 08:14:57;;;;;;;5.30;1.75;;;;;;;26.67;36.36;101836.34;4964400;28;20033;-80
2022/07/04 08:17:23;;;;;;;3.95;1.40;;;;;;;26.68;36.89;101830.75;4965460;28;20058;-80
2022/07/04 08:19:49;;;;;;;5.35;1.55;;;;;;;27.04;36.31;101841.53;4971212;28;20081;-81
2022/07/04 08:22:15;;;;;;;4.07;1.02;;;;;;;27.26;36.68;101834.72;4969409;28;20102;-80
2022/07/04 08:24:40;;;;;;;5.88;2.92;;;;;;;27.49;36.12;101844.03;4969561;28;20026;-81
2022/07/04 08:27:06;;;;;;;5.28;1.30;;;;;;;27.84;34.71;101849.47;4972343;28;20034;-81
2022/07/04 08:29:32;;;;;;;2.85;1.05;;;;;;;28.00;34.21;101857.72;4976624;28;20329;-80
2022/07/04 08:31:57;;;;;;;4.40;1.20;;;;;;;28.20;34.33;101853.66;4979014;28;20019;-80
2022/07/04 08:34:23;;;;;;;3.92;1.30;;;;;;;28.52;33.95;101865.69;4975214;28;20023;-81
2022/07/04 08:36:48;;;;;;;2.58;1.23;;;;;;;28.96;33.28;101859.81;4978132;28;20031;-82
2022/07/04 08:39:13;;;;;;;4.85;1.20;;;;;;;29.42;32.22;101862.81;4972288;28;20476;-80
2022/07/04 08:41:40;;;;;;;3.42;1.38;;;;;;;29.87;31.99;101867.59;4969530;28;20105;-81
2022/07/04 08:44:10;;;;;;;3.50;1.15;;;;;;;30.04;30.95;101871.09;4969380;28;20125;-80
2022/07/04 08:46:39;;;;;;;4.43;1.00;;;;;;;30.39;31.06;101863.34;4969589;28;20054;-81
2022/07/04 08:49:11;;;;;;;2.95;1.10;;;;;;;30.19;30.45;101871.22;4969295;28;20046;-81
2022/07/04 08:51:52;;;;;;;2.53;1.00;;;;;;;30.31;30.67;101879.88;4968499;28;20440;-81
2022/07/04 08:59:50;;;;;;;6.75;1.27;;;;;;;30.78;29.37;101871.47;4954378;28;20041;-81
2022/07/04 09:02:18;;;;;;;3.25;1.15;;;;;;;30.83;28.52;101877.25;4971301;28;20049;-81
2022/07/04 09:04:43;;;;;;;2.83;1.10;;;;;;;30.77;28.37;101867.00;4966352;28;20085;-81
2022/07/04 09:07:12;;;;;;;3.53;1.20;;;;;;;31.19;28.07;101871.03;4968605;28;20027;-81
2022/07/04 09:09:39;;;;;;;4.28;1.33;;;;;;;31.39;27.73;101868.59;4970295;28;20093;-80
2022/07/04 09:12:04;;;;;;;5.10;1.20;;;;;;;31.46;28.67;101864.88;4966523;28;20042;-80
2022/07/04 09:14:30;;;;;;;2.58;1.00;;;;;;;31.90;26.77;101869.50;4978985;28;20038;-80
2022/07/04 09:16:56;;;;;;;2.95;1.20;;;;;;;32.30;27.38;101858.03;4983674;28;20364;-80
2022/07/04 09:19:22;;;;;;;4.75;2.15;;;;;;;32.66;26.44;101867.09;4975706;28;20026;-81
2022/07/04 09:21:48;;;;;;;4.03;1.60;;;;;;;33.22;26.14;101857.97;4987011;28;20499;-81
2022/07/04 09:24:14;;;;;;;2.72;1.38;;;;;;;33.52;25.64;101872.38;4967700;28;20076;-78
2022/07/04 09:26:43;;;;;;;3.88;1.35;;;;;;;33.67;24.87;101875.03;4970312;28;20026;-79
2022/07/04 09:29:09;;;;;;;3.10;1.08;;;;;;;33.82;25.20;101864.69;4967353;28;20110;-80
2022/07/04 09:31:34;;;;;;;3.00;1.30;;;;;;;34.46;24.81;101868.88;4972491;28;20495;-80
2022/07/04 09:34:05;;;;;;;3.10;1.05;;;;;;;34.72;24.00;101862.53;4969311;28;20061;-80
2022/07/04 09:36:39;;;;;;;4.18;1.20;;;;;;;35.37;23.88;101866.28;4968804;28;20166;-80
2022/07/04 09:39:14;;;;;;;2.58;1.15;;;;;;;35.83;22.69;101868.03;4969209;28;20315;-81
2022/07/04 09:42:01;;;;;;;5.40;1.45;;;;;;;35.25;23.97;101858.88;4968382;28;20295;-81
2022/07/04 09:44:49;;;;;;;2.20;1.00;;;;;;;34.20;24.78;101869.69;4969976;28;20038;-81
2022/07/04 09:47:22;;;;;;;3.75;1.15;;;;;;;34.84;23.39;101860.81;4962550;28;20037;-81
2022/07/04 09:50:18;;;;;;;2.85;1.00;;;;;;;35.08;23.66;101864.84;4975628;28;20117;-80
2022/07/04 09:52:44;;;;;;;4.00;1.33;;;;;;;35.00;23.51;101870.63;4970829;28;20043;-80
2022/07/04 09:55:10;;;;;;;2.40;0.93;;;;;;;35.28;21.03;101848.19;4963882;28;20034;-80
2022/07/04 09:57:35;;;;;;;5.55;2.80;;;;;;;33.94;23.53;101875.94;4968119;28;20035;-80
2022/07/04 10:00:19;;;;;;;4.38;1.63;;;;;;;34.41;23.82;101863.13;4967530;28;20516;-80
2022/07/04 10:02:45;;;;;;;3.45;1.35;;;;;;;34.38;23.65;101874.59;4968146;28;20046;-80
2022/07/04 10:05:10;;;;;;;3.03;1.30;;;;;;;34.78;22.05;101864.44;4962536;28;20027;-80
2022/07/04 10:07:45;;;;;;;2.78;1.10;;;;;;;34.48;22.79;101865.91;4969318;28;20038;-79
2022/07/04 10:10:24;;;;;;;2.78;1.30;;;;;;;34.10;23.54;101863.72;4983581;28;20022;-79
2022/07/04 10:12:51;;;;;;;3.55;1.27;;;;;;;31.52;25.63;101871.53;4967443;28;20101;-79
2022/07/04 10:15:17;;;;;;;3.40;1.20;;;;;;;31.50;25.82;101862.59;4982675;28;20038;-79
2022/07/04 10:17:42;;;;;;;3.75;1.40;;;;;;;32.50;26.01;101859.13;4967588;28;20032;-80
2022/07/04 10:20:10;;;;;;;5.30;1.70;;;;;;;34.04;23.93;101865.41;4966711;28;20034;-81
2022/07/04 10:22:37;;;;;;;1.98;1.08;;;;;;;34.73;22.07;101872.50;4966384;28;20842;-80
2022/07/04 10:25:03;;;;;;;2.22;1.10;;;;;;;35.67;21.05;101854.69;4963264;28;20034;-80
2022/07/04 10:27:28;;;;;;;3.88;1.08;;;;;;;36.32;20.24;101857.28;4965283;28;20564;-81
2022/07/04 10:29:54;;;;;;;2.65;0.95;;;;;;;36.48;20.15;101856.78;4967870;28;20038;-80
2022/07/04 10:32:20;;;;;;;2.47;1.27;;;;;;;36.85;20.17;101859.66;4965155;28;20476;-81
2022/07/04 10:34:45;;;;;;;4.00;1.20;;;;;;;35.32;21.83;101851.38;4965729;28;20035;-81
2022/07/04 10:37:11;;;;;;;4.80;1.90;;;;;;;33.05;24.71;101846.44;4959249;28;20023;-80
2022/07/04 10:39:38;;;;;;;4.00;1.75;;;;;;;33.66;23.99;101848.47;4969882;28;20062;-79
2022/07/04 10:42:06;;;;;;;5.25;1.70;;;;;;;35.17;22.03;101840.56;4967219;28;20031;-79
2022/07/04 10:44:37;;;;;;;2.97;1.30;;;;;;;33.66;23.34;101857.59;4964872;28;20144;-79
2022/07/04 10:47:03;;;;;;;2.47;1.00;;;;;;;31.27;26.77;101859.94;4966715;28;20493;-79
2022/07/04 10:49:31;;;;;;;2.88;1.33;;;;;;;31.64;27.52;101852.63;4968661;28;20488;-79
2022/07/04 10:52:12;;;;;;;5.28;1.30;;;;;;;34.53;23.86;101842.13;4969769;28;20043;-80
2022/07/04 10:54:40;;;;;;;4.97;2.10;;;;;;;35.97;22.41;101843.91;4968308;28;20061;-81
2022/07/04 10:57:09;;;;;;;4.55;1.45;;;;;;;34.38;22.25;101853.34;4968572;28;20035;-81
2022/07/04 10:59:34;;;;;;;3.42;1.65;;;;;;;31.63;25.79;101840.75;4970357;28;20426;-80
2022/07/04 11:02:06;;;;;;;3.83;1.10;;;;;;;30.11;27.46;101847.38;4970333;28;20054;-80
2022/07/04 11:04:43;;;;;;;2.78;1.30;;;;;;;29.81;28.18;101838.16;4968973;28;20058;-80
2022/07/04 11:07:09;;;;;;;3.67;1.20;;;;;;;30.61;27.13;101828.66;4971430;28;20035;-80
2022/07/04 11:09:34;;;;;;;4.55;1.60;;;;;;;29.81;28.64;101835.41;4972572;28;20397;-79
2022/07/04 11:12:03;;;;;;;3.30;1.15;;;;;;;31.02;27.64;101831.88;4969658;28;20034;-79
2022/07/04 11:14:46;;;;;;;3.35;1.25;;;;;;;34.27;25.30;101828.25;4969876;28;20062;-80
2022/07/04 11:17:19;;;;;;;5.43;1.58;;;;;;;36.26;21.17;101830.50;4969025;28;20042;-79
2022/07/04 11:19:45;;;;;;;4.10;1.30;;;;;;;36.21;20.23;101819.22;4969293;28;20086;-81
2022/07/04 11:22:11;;;;;;;2.95;1.10;;;;;;;36.82;20.01;101818.50;4971456;28;20599;-80
2022/07/04 11:24:38;;;;;;;3.42;1.30;;;;;;;37.58;19.40;101818.09;4960834;28;20555;-80
2022/07/04 11:27:06;;;;;;;3.60;1.40;;;;;;;38.03;18.81;101814.88;4969678;28;20121;-81
2022/07/04 11:29:32;;;;;;;2.25;1.27;;;;;;;38.70;18.01;101805.44;4966488;28;20496;-80
2022/07/04 11:31:57;;;;;;;2.53;1.20;;;;;;;39.16;17.71;101803.72;4971954;28;20027;-81
2022/07/04 11:34:23;;;;;;;3.13;1.30;;;;;;;39.43;16.97;101804.91;4964323;28;20019;-79
2022/07/04 11:36:50;;;;;;;2.00;0.93;;;;;;;39.58;17.02;101799.63;4962766;28;20097;-80
2022/07/04 11:39:19;;;;;;;3.55;1.23;;;;;;;38.96;17.29;101807.78;4965391;28;20568;-80